Florianopolis, Brazil
Current Conditions -  °F | °C
As of 9:00 PM on Monday 22 Dec 2014 (Local Time) from SBFL Reporting Station
Broken Clouds Broken Clouds  
Wind Chill: 73°   Ceiling: 8000
Heat Index: 73°   Visibility: 6mi
Dew Point: 64°   Wind: 14mph
Humidity: 73%   Direction: 200°SSW
Pressure: 29.97"   Gusts: NA
Location:  27.6°S, 48.54°W
Report Text: SBFL 222300Z 20012KT 9999 FEW020 BKN080 23/18 Q1015
Loading
Personal Weather Stations






























Interactive Weather Map New forecast layout! Learn more

10-Day Weather Forecast

Advertisements
Track Severe Weather on mobile